Timeline UpdatesTrip UpdatesNews PostsPvt PostsTravel TipsAdmin PostsConv PostsFollowed PostsChat RequestsBlog PostsPNR Posts

Disclaimer
Search
 
 
Mon Sep 1, 2014 13:01:41 ISTHomeTrainsΣChainsAtlasPNRForumGalleryNewsFAQTripsMembersLoginFeedback
No Recent News for this Train
Other Trains in the News **new
Latest...
.
Wed Nov 20, 2013 (07:10AM)
⇐ Return Journey: Train# 12921

12922/Flying Ranee Express

OLD Time-Table. New TT will soon be available.
Jul 01 2013 (10:35PM)
Change Departure Station:
Change Arrival Station:
Post a Train Travel TipPost a Train Travel Tip **new
Post a Comment/Question/Picture/VideoPost a Comment/Question/Picture/Video
Inaugural Run
Tue Nov 01, 1938
Pantry/Catering
✕ NO Pantry Car
✓ Catering Avbl
RSA - Rake Sharing
No RSA
Rake/Coach Composition
slr-gen-gen*-gen*-gen*-d6*-d5*-d4*-d3*-d2*-d1*-mst*-fc1-c2-c1-gen-lds-slr- loco; * marked coaches are non-AC double decker..
Loco
BRC WAP 5
News    PNR    Forum    Time-Table    Availability    Fare Chart    Map    Arr/Dep History    Trips    Gallery    ΣChains    X/O    Timeline    
Travel Time: 4h 27m    10 halts    Distance: 249 km    Avg Speed: 55 km/hr
Type: SuperFast
Zone: WR/Western
Departs @ 05:43 (Avg 9m late)
Platform# 2
SMTWTFS
Sachin/SCH 
Arrives @ 10:10 (Avg 7m late)
Platform# 3
SMTWTFS
Mumbai Central/BCT 

10 halts. 54 intermediate Stations between Sachin and Mumbai Central

Hide intermediate Stations  Show Old Time-Table

#CodeStation NameX/OArrivesAvgDepartsAvgHaltPFDay#KmSpeedElevZoneAddress
1STSurat (4)  -05:25+131-14.54019mWRSurat 395001, Gujarat
2UDNUdhna Junction (3)X  05:31+405:33+42m21-10.57916mWRUdhna 394210, Gujarat
2.1BHETBhestan (2)  05:37-05:37-  1-5.7 7913mWRSurat, Gujarat
3SCH»Sachin (3)»  05:41+905:43+92m210.08011mWRKansad Road Sachin, Gujarat
4MRLMaroli (3)  05:48+1205:50+132m216.66315mWRMaroli, Gujarat
5NVSNavsari (3)  05:58+1306:00+132m2115.17814mWRNavsari, Gujarat
5.1GNSTGandhi Smriti (2)  06:02-06:02-  118.1 7816mWRGandhi Smriti Navsari, Gujarat
5.2HXRHansapore (2)  06:04-06:04-  119.7 7815mWRHansapore, Gujarat
5.3VDHVedchha (3)  06:06-06:06-  123.5 7813mWRNavsari, Gujarat
5.4ACLAncheli (2)  06:09-06:09-  126.9 7820mWRNavsari, Gujarat
6AMLAmalsad (3)  06:12+1506:14+152m2130.76712mWRAmalsad, Gujarat
7BIMBilimora Junction (4)X  06:19+1606:21+162m2136.35411mWRBilimora, Gujarat
7.1JRSJoravasan (2)  06:25-06:25-  140.2 5415mWRJoravasan, Gujarat
7.2DGIDungri (3)  06:31-06:31-  145.3 5420mWRNH 8, Gujarat
8BLValsad (3)X  06:41+1206:43+122m3154.28315mWRValsad, Gujarat
8.1ATULAtul (3)  06:48-06:48-  160.9 8322mWRValsad, Gujarat
8.2PADPardi (3)  06:51-06:51-  164.9 8319mWRValsad, Gujarat
8.3UVDUdvada (3)  06:55-06:55-  170.8 8318mWRUdvada, Gujarat
8.4BAGDBagwada (2)  06:57-06:57-  173.7 8322mWRNH8, Gujarat
9VAPIVapi (3)XO  07:02+1607:04+162m2180.47527mWRVapi, Gujarat
9.1KEBKarambeli (2)  07:09-07:09-  186.9 7529mWRNational Highway 8, Gujarat
9.2BLDBhilad (3)X  07:13-07:13-  191.7 7533mWRBhilad, Gujarat
9.3SJNSanjan (3)  07:22-07:22-  1103.3 7522mWRSanjan, Gujarat
9.4UBRUmbargam Road (3)  07:27-07:27-  1108.7 7530mWRUmbergaon, Gujarat
9.5BRRDBordi Road (2)X  07:30-07:30-  1112.9 7517mWRBordi, Maharashtra
9.6GVDGholvad (4)X  07:34-07:34-  1117.8 7514mWRGholvad, Maharashtra
10DRDDahanu Road (5)X  07:43+2007:45+212m21129.07912mWRDahanu, Maharashtra
10.1VGNVangaon (3)  07:54-07:54-  1141.3 7911mWRDist. Palghar, Maharashtra
10.2BORBoisar (3)  08:01-08:01-  1150.7 7917mWRBoisar Tel.no-02525-266626, Maharashtra
10.3UOIUmroli (2)  08:05-08:05-  1155.6 798mWRBoisar, Maharashtra
11PLGPalghar (3)X  08:10+1108:12+122m21161.95519mWRPalghar, Maharashtra
11.1KLVKelve Road (3)  08:21-08:21-  1170.4 5510mWRDist. Palghar, Maharashtra
11.2SAHSaphale (2)  08:28-08:28-  1176.8 558mWRDist. Palghar, Maharashtra
11.3VTNVaitarna (2)XO  08:37-08:37-  1184.6 553mWRDist. Palghar, Maharashtra
11.4VRVirar (8)X  08:46-08:46-  1193.1 556mWRDist. Palghar, Maharashtra
11.5NSPNallasopara (4)  08:50-08:50-  1197.3 555mWRNallasopara station Rd, Maharashtra
11.6BSRVasai Road (7)  08:55-08:55-  1201.5 557mWRVasai 401202, Maharashtra
11.7NIGNaigaon (4)  08:59-08:59-  1205.2 555mWRNaigaon West, Maharashtra
11.8BYRBhayandar (6)  09:04-09:04-  1209.9 556mWRThane, Maharashtra
11.9MIRAMira Road (4)X  09:08-09:08-  1213.2 553mWRMira Bhayandar, Maharashtra
11.10DICDahisar (4)  09:11-09:11-  1216.6 5514mWRMumbai, Maharashtra
12BVIMumbai Borivali (8)  09:14+609:16+62m51218.95019mWRMumbai - 400092, Maharashtra
12.1KILEKandivli (4)  09:19-09:19-  1221.7 5014mWRMumbai, Maharashtra
12.2MDDMalad (4)  09:22-09:22-  1223.8 5018mWRMumbai-400064, Maharashtra
12.3GMNGoregaon (5)  09:25-09:25-  1226.2 5015mWRMumbai - 400104, Maharashtra
12.4JOSJogeshwari (4)  09:28-09:28-  1229.3 5014mWRMumbai, Maharashtra
13ADHMumbai Andheri (9)X  09:31+1009:33+112m51231.52812mWRMumbai, Maharashtra
13.1VLPVille Parle (6)  09:37-09:37-  1233.5 2811mWRMumbai, Maharashtra
13.2STCSanta Cruz (6)  09:41-09:41-  1235.4 2810mWRMumbai, Maharashtra
13.3KHARKhar (6)  09:45-09:45-  1236.8 287mWRMumbai, Maharashtra
13.4BDTSMumbai Bandra Terminus (5)  09:46-09:46-  1237.7 284mWRMumbai 400050, Maharashtra
13.5BABandra (7)  09:48-09:48-  1238.5 286mWRMumbai, Maharashtra
13.6MMMumbai Mahim Junction (6)  09:52-09:52-  1240.2 285mWRMumbai, Maharashtra
13.7MRUMumbai Matunga Road (2)  09:54-09:54-  1241.4 287mWRMumbai, Maharashtra
13.8DDRMumbai Dadar Western (6)  09:57-09:57-  1242.7 286mWRMumbai, Maharashtra
13.9EPRMumbai Elphinstone Road (2)  10:01-10:01-  1244.2 284mWRMumbai, Maharashtra
13.10PLMumbai Lower Parel (3)  10:04-10:04-  1245.7 285mWRMumbai, Maharashtra
13.11MXMumbai Mahalakshmi (2)  10:07-10:07-  1247.2 283mWRMumbai, Maharashtra
14BCT•Mumbai Central (9)•  10:10+7-31248.6-3mWRMumbai 400008, Maharashtra
Scroll to Top
Scroll to Bottom